KTTN/TTN METAR and TAF weather

Enter ICAO airport designator
Station Type Date Time Source
KTTN METAR 2020/04/04 05:53 UTC NOAA

KTTN 040553Z AUTO 34006KT 10SM OVC036 09/06 A2988 RMK AO2 SLP113 60000 T00940061 10100 20089 52007


Station Type Date Time Source
KTTN Decoded METAR 2020/04/04 05:53 UTC NOAA

TRENTON MERCER COUNTY AIRPORT , NJ, United States (KTTN) 40-17N 074-49W 59M
Apr 04, 2020 - 01:53 AM EDT / 2020.04.04 0553 UTC
Wind: from the NNW (340 degrees) at 7 MPH (6 KT):0
Visibility: 10 mile(s):0
Sky conditions: overcast
Temperature: 48.9 F (9.4 C)
Dew Point: 43.0 F (6.1 C)
Relative Humidity: 79%
Pressure (altimeter): 29.88 in. Hg (1011 hPa)
Pressure tendency: 0.02 inches (0.7 hPa) higher than three hours ago
ob: KTTN 040553Z AUTO 34006KT 10SM OVC036 09/06 A2988 RMK AO2 SLP113 60000 T00940061 10100 20089 52007
cycle: 6

Station Type Date Time Source
KTTN TAF 2020/04/04 06:27 UTC NOAA

TAF KTTN 040525Z 0406/0506 34007KT P6SM OVC035
FM040800 36007KT P6SM SCT020 OVC030
FM041400 05007KT P6SM OVC020
FM042000 VRB04KT P6SM SCT025 BKN035

Example: see airport list